Time;durP1;ratioP1;P1;durP2;ratioP2;P2;SDS_P1;SDS_P2;PMS_P1;PMS_P2;Temp;Humidity;BMP_temperature;BMP_pressure;BME280_temperature;BME280_humidity;BME280_pressure;Samples;Min_cycle;Max_cycle;Signal;HPM_P1;HPM_P2
2022/08/22 00:02:06;;;;;;;5.47;2.10;;;;;;;;;;5054795;28;20031;-80
2022/08/22 00:04:55;;;;;;;5.88;2.75;;;;;;;;;;5054137;28;20085;-81
2022/08/22 00:07:42;;;;;;;16.60;3.20;;;;;;;;;;5057465;28;20049;-80
2022/08/22 00:10:10;;;;;;;6.50;2.30;;;;;;;;;;5057611;28;20054;-81
2022/08/22 00:12:43;;;;;;;6.93;3.08;;;;;;;;;;5060290;28;20021;-81
2022/08/22 00:15:18;;;;;;;7.03;2.63;;;;;;;;;;5060117;28;20088;-81
2022/08/22 00:18:02;;;;;;;8.68;2.42;;;;;;;;;;5058552;28;20047;-83
2022/08/22 00:20:38;;;;;;;9.48;2.53;;;;;;;;;;5057077;28;20025;-80
2022/08/22 00:23:25;;;;;;;6.55;2.50;;;;;;;;;;5057110;28;20029;-82
2022/08/22 00:26:02;;;;;;;3.88;2.42;;;;;;;;;;5054378;28;20083;-81
2022/08/22 00:28:34;;;;;;;4.18;2.47;;;;;;;;;;5053906;28;20029;-83
2022/08/22 00:31:06;;;;;;;;;;;;;;;;;;5056020;28;20059;-80
2022/08/22 00:34:02;;;;;;;7.13;2.67;;;;;;;;;;5056312;28;19916;-81
2022/08/22 00:37:10;;;;;;;6.72;2.80;;;;;;;;;;5071286;28;20578;-81
2022/08/22 00:39:48;;;;;;;4.70;2.80;;;;;;;;;;5054694;28;20481;-81
2022/08/22 00:42:23;;;;;;;6.75;2.67;;;;;;;;;;5055280;28;20490;-82
2022/08/22 00:45:26;;;;;;;8.32;4.32;;;;;;;;;;5055143;28;20425;-80
2022/08/22 00:48:19;;;;;;;7.68;3.28;;;;;;;;;;5070689;28;20036;-81
2022/08/22 00:51:06;;;;;;;5.53;2.67;;;;;;;;;;5071161;28;20392;-81
2022/08/22 00:53:56;;;;;;;8.68;2.47;;;;;;;;;;5055701;28;20032;-81
2022/08/22 00:56:40;;;;;;;6.45;2.85;;;;;;;;;;5055106;28;20044;-80
2022/08/22 00:59:37;;;;;;;4.75;2.92;;;;;;;;;;5055629;28;20021;-81
2022/08/22 01:02:21;;;;;;;10.57;2.70;;;;;;;;;;5070364;28;20112;-81
2022/08/22 01:05:16;;;;;;;6.95;3.28;;;;;;;;;;5054822;28;20036;-83
2022/08/22 01:07:56;;;;;;;5.32;2.80;;;;;;;;;;5070793;28;20056;-80
2022/08/22 01:10:28;;;;;;;3.30;2.67;;;;;;;;;;5069776;28;20079;-81
2022/08/22 01:13:14;;;;;;;5.28;2.67;;;;;;;;;;5054371;28;20068;-82
2022/08/22 01:15:41;;;;;;;5.05;2.60;;;;;;;;;;5053554;28;20025;-81
2022/08/22 01:18:22;;;;;;;5.40;2.75;;;;;;;;;;5054085;28;20453;-81
2022/08/22 01:21:12;;;;;;;5.18;2.42;;;;;;;;;;5053050;28;20052;-82
2022/08/22 01:24:15;;;;;;;4.80;2.40;;;;;;;;;;5072682;28;20115;-80
2022/08/22 01:27:05;;;;;;;6.68;2.90;;;;;;;;;;5057428;28;20104;-82
2022/08/22 01:29:49;;;;;;;4.28;2.83;;;;;;;;;;5056558;28;20513;-81
2022/08/22 01:32:51;;;;;;;6.15;2.50;;;;;;;;;;5057810;28;20029;-81
2022/08/22 01:35:26;;;;;;;5.13;2.80;;;;;;;;;;5057629;28;20503;-81
2022/08/22 01:38:12;;;;;;;8.70;2.75;;;;;;;;;;5056530;28;20381;-80
2022/08/22 01:41:19;;;;;;;7.60;3.03;;;;;;;;;;5055483;28;20542;-81
2022/08/22 01:44:12;;;;;;;4.18;2.30;;;;;;;;;;5056892;28;20039;-81
2022/08/22 01:46:57;;;;;;;3.45;2.47;;;;;;;;;;5056052;28;20024;-81
2022/08/22 01:49:32;;;;;;;6.88;2.75;;;;;;;;;;5057167;28;20059;-81
2022/08/22 01:51:57;;;;;;;9.82;2.92;;;;;;;;;;5057936;28;20534;-80
2022/08/22 01:54:33;;;;;;;4.10;2.28;;;;;;;;;;5056692;28;20115;-80
2022/08/22 01:57:06;;;;;;;6.35;2.47;;;;;;;;;;5057381;28;20021;-82
2022/08/22 01:59:40;;;;;;;6.47;2.55;;;;;;;;;;5057876;28;20155;-80
2022/08/22 02:02:26;;;;;;;4.85;2.90;;;;;;;;;;5057907;28;20074;-80
2022/08/22 02:05:07;;;;;;;5.28;2.38;;;;;;;;;;5057437;28;20100;-81
2022/08/22 02:07:54;;;;;;;5.22;2.72;;;;;;;;;;5057305;28;20043;-81
2022/08/22 02:10:52;;;;;;;7.07;2.90;;;;;;;;;;5055553;28;20025;-81
2022/08/22 02:13:32;;;;;;;5.15;2.50;;;;;;;;;;5057254;28;20029;-81
2022/08/22 02:16:19;;;;;;;2.85;2.50;;;;;;;;;;5055982;28;20028;-80
2022/08/22 02:19:14;;;;;;;5.18;3.30;;;;;;;;;;5055757;28;20037;-81
2022/08/22 02:22:24;;;;;;;9.43;2.90;;;;;;;;;;5047105;28;20025;-80
2022/08/22 02:24:58;;;;;;;6.25;3.53;;;;;;;;;;5018602;28;20049;-82
2022/08/22 02:27:51;;;;;;;3.38;2.30;;;;;;;;;;5053340;28;20064;-81
2022/08/22 02:30:21;;;;;;;4.07;2.17;;;;;;;;;;5055335;28;20032;-80
2022/08/22 02:32:59;;;;;;;4.38;2.33;;;;;;;;;;5055541;28;20546;-82
2022/08/22 02:35:41;;;;;;;6.00;2.58;;;;;;;;;;5056439;28;20025;-80
2022/08/22 02:38:18;;;;;;;;;;;;;;;;;;5055127;28;20029;-81
2022/08/22 02:41:02;;;;;;;3.95;2.67;;;;;;;;;;5056101;28;19966;-80
2022/08/22 02:43:38;;;;;;;4.85;2.78;;;;;;;;;;5054644;28;20362;-81
2022/08/22 02:46:23;;;;;;;8.15;3.20;;;;;;;;;;5055984;28;20649;-80
2022/08/22 02:49:19;;;;;;;6.38;2.97;;;;;;;;;;5054114;28;20047;-81
2022/08/22 02:51:56;;;;;;;6.93;2.65;;;;;;;;;;5055574;28;20025;-83
2022/08/22 02:54:42;;;;;;;4.22;2.70;;;;;;;;;;5056094;28;20028;-80
2022/08/22 02:57:13;;;;;;;7.00;3.20;;;;;;;;;;5056348;28;20024;-81
2022/08/22 03:00:06;;;;;;;4.97;2.90;;;;;;;;;;5056098;28;20403;-81
2022/08/22 03:02:37;;;;;;;5.72;2.53;;;;;;;;;;5056104;28;20045;-79
2022/08/22 03:05:40;;;;;;;7.43;3.17;;;;;;;;;;5056205;28;20032;-82
2022/08/22 03:08:32;;;;;;;4.93;2.75;;;;;;;;;;5055535;28;20468;-80
2022/08/22 03:11:05;;;;;;;5.70;2.70;;;;;;;;;;5055778;28;20047;-81
2022/08/22 03:13:45;;;;;;;8.15;3.35;;;;;;;;;;5054574;28;20125;-82
2022/08/22 03:16:32;;;;;;;9.00;3.13;;;;;;;;;;5054969;28;20025;-81
2022/08/22 03:19:17;;;;;;;5.40;3.10;;;;;;;;;;5055092;28;20075;-81
2022/08/22 03:21:55;;;;;;;6.75;2.80;;;;;;;;;;5056414;28;20384;-81
2022/08/22 03:24:36;;;;;;;3.97;2.67;;;;;;;;;;5054738;28;20055;-81
2022/08/22 03:27:22;;;;;;;6.18;2.45;;;;;;;;;;5054662;28;20051;-81
2022/08/22 03:29:56;;;;;;;11.88;3.40;;;;;;;;;;5055472;28;20017;-81
2022/08/22 03:32:54;;;;;;;5.15;2.50;;;;;;;;;;5055828;28;20049;-81
2022/08/22 03:35:45;;;;;;;9.13;3.25;;;;;;;;;;5049743;28;20036;-82
2022/08/22 03:38:31;;;;;;;6.07;2.83;;;;;;;;;;5053347;28;20017;-82
2022/08/22 03:41:24;;;;;;;6.72;3.03;;;;;;;;;;5055280;28;20021;-81
2022/08/22 03:44:17;;;;;;;6.88;3.17;;;;;;;;;;5053705;28;20068;-81
2022/08/22 03:47:12;;;;;;;8.23;3.05;;;;;;;;;;5055471;28;20029;-81
2022/08/22 03:50:14;;;;;;;5.15;2.78;;;;;;;;;;5045080;28;20037;-82
2022/08/22 03:55:51;;;;;;;8.70;3.08;;;;;;;;;;5055760;28;20492;-81
2022/08/22 03:58:31;;;;;;;6.22;2.88;;;;;;;;;;5053555;28;20033;-80
2022/08/22 04:01:13;;;;;;;4.43;3.08;;;;;;;;;;5054266;28;20033;-81
2022/08/22 04:03:57;;;;;;;8.52;3.28;;;;;;;;;;5054911;28;20365;-81
2022/08/22 04:06:46;;;;;;;7.07;2.92;;;;;;;;;;5054517;28;20472;-81
2022/08/22 04:09:24;;;;;;;4.43;2.78;;;;;;;;;;5053209;28;20504;-81
2022/08/22 04:12:38;;;;;;;7.38;3.58;;;;;;;;;;5054004;28;20405;-82
2022/08/22 04:15:24;;;;;;;5.47;2.90;;;;;;;;;;5053769;28;20112;-82
2022/08/22 04:18:27;;;;;;;5.22;3.10;;;;;;;;;;5052579;28;20477;-81
2022/08/22 04:21:11;;;;;;;5.25;3.20;;;;;;;;;;5054598;28;20112;-82
2022/08/22 04:24:01;;;;;;;9.25;3.50;;;;;;;;;;5054543;28;20048;-81
2022/08/22 04:26:58;;;;;;;8.60;3.90;;;;;;;;;;5054500;28;20037;-81
2022/08/22 04:29:40;;;;;;;16.20;4.30;;;;;;;;;;5054833;28;20044;-83
2022/08/22 04:32:27;;;;;;;8.05;3.97;;;;;;;;;;5053722;28;20067;-83
2022/08/22 04:35:05;;;;;;;7.07;3.80;;;;;;;;;;5054725;28;20079;-81
2022/08/22 04:37:38;;;;;;;17.55;3.90;;;;;;;;;;5055549;28;20384;-81
2022/08/22 04:40:42;;;;;;;10.05;3.50;;;;;;;;;;5054350;28;20031;-79
2022/08/22 04:43:10;;;;;;;11.63;3.92;;;;;;;;;;5016993;28;20613;-82
2022/08/22 04:46:10;;;;;;;6.75;3.70;;;;;;;;;;5064278;28;20032;-81
2022/08/22 04:48:52;;;;;;;9.68;4.15;;;;;;;;;;5055515;28;20061;-81
2022/08/22 04:51:30;;;;;;;11.90;3.85;;;;;;;;;;5053233;28;20025;-81
2022/08/22 04:54:14;;;;;;;5.90;3.53;;;;;;;;;;5054687;28;20079;-82
2022/08/22 04:57:18;;;;;;;6.07;3.58;;;;;;;;;;5054722;28;20472;-81
2022/08/22 04:59:44;;;;;;;9.13;3.47;;;;;;;;;;5057072;28;20475;-81
2022/08/22 05:02:18;;;;;;;7.93;3.65;;;;;;;;;;5057166;28;20032;-83
2022/08/22 05:04:48;;;;;;;8.57;3.67;;;;;;;;;;5042292;28;20040;-80
2022/08/22 05:07:19;;;;;;;7.85;3.90;;;;;;;;;;5056994;28;20029;-81
2022/08/22 05:09:55;;;;;;;4.47;3.30;;;;;;;;;;5057071;28;20019;-82
2022/08/22 05:12:34;;;;;;;8.57;3.97;;;;;;;;;;5057361;28;20334;-81
2022/08/22 05:15:23;;;;;;;8.13;3.75;;;;;;;;;;5058133;28;20393;-80
2022/08/22 05:17:52;;;;;;;7.25;4.03;;;;;;;;;;5056605;28;20495;-81
2022/08/22 05:20:21;;;;;;;10.82;3.90;;;;;;;;;;5057473;28;20477;-81
2022/08/22 05:22:53;;;;;;;7.80;4.03;;;;;;;;;;5057845;28;20052;-81
2022/08/22 05:25:26;;;;;;;10.45;4.28;;;;;;;;;;5053775;28;20052;-81
2022/08/22 05:28:16;;;;;;;7.10;3.42;;;;;;;;;;5057977;28;20090;-83
2022/08/22 05:30:44;;;;;;;10.55;7.00;;;;;;;;;;5056808;28;20028;-81
2022/08/22 05:33:13;;;;;;;10.13;5.28;;;;;;;;;;5058028;28;20067;-80
2022/08/22 05:35:53;;;;;;;6.38;3.78;;;;;;;;;;5050970;28;20503;-77
2022/08/22 05:38:24;;;;;;;11.27;4.53;;;;;;;;;;5050940;28;20111;-78
2022/08/22 05:40:58;;;;;;;8.77;3.95;;;;;;;;;;5035415;28;20030;-77
2022/08/22 05:43:25;;;;;;;10.85;5.25;;;;;;;;;;5039705;28;20037;-77
2022/08/22 05:45:52;;;;;;;10.88;4.75;;;;;;;;;;5049857;28;20120;-78
2022/08/22 05:48:24;;;;;;;5.10;3.80;;;;;;;;;;5050433;28;20021;-76
2022/08/22 05:50:57;;;;;;;;;;;;;;;;;;5030193;28;20595;-76
2022/08/22 05:53:31;;;;;;;11.18;4.05;;;;;;;;;;5051878;28;19920;-77
2022/08/22 05:56:09;;;;;;;8.95;3.95;;;;;;;;;;5052958;28;20032;-76
2022/08/22 05:58:37;;;;;;;8.32;3.60;;;;;;;;;;5047612;28;20075;-77
2022/08/22 06:01:18;;;;;;;9.32;4.05;;;;;;;;;;5052739;28;20035;-75
2022/08/22 06:04:00;;;;;;;3.75;3.10;;;;;;;;;;5060622;28;20519;-77
2022/08/22 06:06:28;;;;;;;8.05;3.92;;;;;;;;;;5060187;28;20071;-77
2022/08/22 06:08:58;;;;;;;10.55;4.15;;;;;;;;;;5040546;28;20063;-78
2022/08/22 06:11:33;;;;;;;6.45;3.70;;;;;;;;;;5056219;28;20104;-77
2022/08/22 06:14:09;;;;;;;11.23;4.28;;;;;;;;;;5054726;28;20025;-78
2022/08/22 06:16:44;;;;;;;9.95;3.70;;;;;;;;;;5056847;28;20468;-79
2022/08/22 06:19:14;;;;;;;7.30;3.72;;;;;;;;;;5045032;28;20067;-76
2022/08/22 06:21:41;;;;;;;10.40;3.47;;;;;;;;;;5053660;28;20032;-76
2022/08/22 06:24:14;;;;;;;4.45;3.33;;;;;;;;;;5062960;28;20393;-77
2022/08/22 06:26:42;;;;;;;9.80;3.35;;;;;;;;;;5040811;28;20064;-78
2022/08/22 06:29:09;;;;;;;14.10;4.00;;;;;;;;;;5049443;28;20016;-77
2022/08/22 06:31:41;;;;;;;9.15;3.63;;;;;;;;;;5056631;28;20040;-77
2022/08/22 06:34:12;;;;;;;6.60;3.40;;;;;;;;;;5041032;28;20029;-75
2022/08/22 06:36:41;;;;;;;8.02;5.07;;;;;;;;;;5044501;28;20541;-76
2022/08/22 06:39:15;;;;;;;9.35;3.28;;;;;;;;;;5043878;28;20025;-77
2022/08/22 06:41:49;;;;;;;14.48;4.28;;;;;;;;;;5049695;28;20021;-82
2022/08/22 06:44:19;;;;;;;14.98;3.55;;;;;;;;;;5040989;28;20029;-81
2022/08/22 06:46:48;;;;;;;12.75;3.65;;;;;;;;;;5071684;28;20112;-79
2022/08/22 06:49:15;;;;;;;8.75;3.55;;;;;;;;;;5055525;28;20468;-81
2022/08/22 06:51:44;;;;;;;6.50;2.60;;;;;;;;;;5049355;28;20021;-81
2022/08/22 06:54:17;;;;;;;7.75;3.03;;;;;;;;;;5049379;28;20021;-79
2022/08/22 06:56:47;;;;;;;7.22;2.90;;;;;;;;;;5057669;28;20507;-81
2022/08/22 06:59:18;;;;;;;7.13;3.00;;;;;;;;;;5045634;28;20116;-80
2022/08/22 07:02:03;;;;;;;14.23;2.72;;;;;;;;;;5052132;28;20072;-78
2022/08/22 07:04:30;;;;;;;6.88;2.83;;;;;;;;;;5048460;28;20056;-82
2022/08/22 07:06:59;;;;;;;6.05;3.08;;;;;;;;;;5030963;28;20514;-81
2022/08/22 07:09:29;;;;;;;6.45;2.72;;;;;;;;;;5049764;28;20078;-81
2022/08/22 07:12:09;;;;;;;10.57;3.20;;;;;;;;;;5044168;28;20770;-80
2022/08/22 07:14:44;;;;;;;10.65;2.60;;;;;;;;;;5043931;28;20082;-80
2022/08/22 07:17:25;;;;;;;6.25;3.30;;;;;;;;;;5018767;28;20040;-80
2022/08/22 07:20:22;;;;;;;3.90;2.43;;;;;;;;;;5041838;28;20033;-80
2022/08/22 07:23:12;;;;;;;5.95;2.58;;;;;;;;;;5045822;28;20056;-81
2022/08/22 07:25:50;;;;;;;6.30;2.55;;;;;;;;;;5046935;28;20116;-81
2022/08/22 07:28:54;;;;;;;4.75;2.35;;;;;;;;;;5045157;28;20410;-81
2022/08/22 07:31:36;;;;;;;7.00;2.83;;;;;;;;;;5023892;28;20061;-80
2022/08/22 07:34:36;;;;;;;8.32;3.03;;;;;;;;;;5041670;28;20029;-82
2022/08/22 07:37:31;;;;;;;8.40;5.32;;;;;;;;;;5044715;28;20037;-81
2022/08/22 07:40:09;;;;;;;6.57;2.22;;;;;;;;;;5041084;28;20048;-80
2022/08/22 07:42:55;;;;;;;9.18;3.17;;;;;;;;;;5047286;28;20061;-81
2022/08/22 07:45:32;;;;;;;9.90;3.92;;;;;;;;;;5046839;28;20025;-80
2022/08/22 07:48:28;;;;;;;4.45;2.53;;;;;;;;;;5042402;28;20040;-79
2022/08/22 07:50:59;;;;;;;8.68;3.80;;;;;;;;;;5043112;28;20029;-81
2022/08/22 07:53:43;;;;;;;;;;;;;;;;;;5040743;28;20167;-79
2022/08/22 07:56:24;;;;;;;7.63;2.45;;;;;;;;;;5047280;28;19920;-80
2022/08/22 07:58:59;;;;;;;;;;;;;;;;;;5042504;28;20421;-79
2022/08/22 08:01:28;;;;;;;9.88;3.35;;;;;;;;;;5041599;28;20007;-81
2022/08/22 08:04:06;;;;;;;9.23;2.70;;;;;;;;;;5035156;28;20170;-78
2022/08/22 08:06:34;;;;;;;5.18;2.55;;;;;;;;;;5039017;28;20702;-78
2022/08/22 08:09:01;;;;;;;5.90;2.75;;;;;;;;;;5041683;28;20025;-79
2022/08/22 08:11:33;;;;;;;6.30;3.05;;;;;;;;;;5044056;28;20583;-79
2022/08/22 08:14:03;;;;;;;6.13;3.03;;;;;;;;;;5037846;28;20060;-80
2022/08/22 08:16:51;;;;;;;7.25;2.80;;;;;;;;;;5039949;28;20385;-78
2022/08/22 08:19:21;;;;;;;7.57;3.45;;;;;;;;;;5037619;28;20052;-80
2022/08/22 08:21:58;;;;;;;6.45;3.70;;;;;;;;;;5038385;28;20048;-80
2022/08/22 08:24:45;;;;;;;10.88;3.13;;;;;;;;;;5040433;28;20544;-79
2022/08/22 08:30:26;;;;;;;7.57;3.20;;;;;;;;;;5036308;28;20091;-79
2022/08/22 08:32:56;;;;;;;12.00;4.00;;;;;;;;;;5045258;28;20036;-79
2022/08/22 08:35:34;;;;;;;11.20;4.23;;;;;;;;;;5044098;28;20033;-81
2022/08/22 08:38:26;;;;;;;6.82;3.38;;;;;;;;;;5044483;28;20386;-79
2022/08/22 08:41:38;;;;;;;5.97;3.15;;;;;;;;;;5047840;28;20048;-79
2022/08/22 08:44:20;;;;;;;9.15;3.67;;;;;;;;;;5046464;28;20548;-79
2022/08/22 08:47:15;;;;;;;8.93;3.78;;;;;;;;;;5053414;28;20044;-80
2022/08/22 08:50:15;;;;;;;10.82;3.78;;;;;;;;;;5033241;28;20061;-80
2022/08/22 08:53:08;;;;;;;11.65;3.25;;;;;;;;;;5046527;28;20124;-78
2022/08/22 08:56:02;;;;;;;9.80;3.97;;;;;;;;;;5021715;28;20131;-80
2022/08/22 08:58:56;;;;;;;16.80;4.43;;;;;;;;;;5034380;28;20060;-81
2022/08/22 09:02:02;;;;;;;6.13;3.20;;;;;;;;;;5030846;28;20045;-81
2022/08/22 09:04:34;;;;;;;10.50;3.70;;;;;;;;;;5021583;28;20489;-78
2022/08/22 09:07:41;;;;;;;6.85;3.13;;;;;;;;;;5029069;28;20174;-80
2022/08/22 09:10:28;;;;;;;5.88;2.92;;;;;;;;;;5027515;28;20481;-79
2022/08/22 09:13:17;;;;;;;6.63;3.47;;;;;;;;;;5026119;28;20022;-80
2022/08/22 09:15:57;;;;;;;6.43;3.03;;;;;;;;;;5027779;28;20072;-79
2022/08/22 09:18:33;;;;;;;12.73;4.60;;;;;;;;;;5025682;28;20036;-78
2022/08/22 09:21:38;;;;;;;6.82;2.83;;;;;;;;;;5043508;28;20025;-80
2022/08/22 09:24:19;;;;;;;6.05;2.83;;;;;;;;;;5038718;28;20167;-79
2022/08/22 09:26:56;;;;;;;8.27;2.95;;;;;;;;;;5028563;28;20044;-79
2022/08/22 09:29:38;;;;;;;11.52;3.10;;;;;;;;;;5029593;28;20030;-80
2022/08/22 09:32:55;;;;;;;9.43;3.20;;;;;;;;;;5028529;28;20076;-81
2022/08/22 09:35:53;;;;;;;7.90;4.53;;;;;;;;;;5033496;28;20461;-80
2022/08/22 09:38:52;;;;;;;6.88;3.10;;;;;;;;;;5025872;28;20946;-78
2022/08/22 09:41:39;;;;;;;6.97;2.97;;;;;;;;;;5028732;28;20053;-80
2022/08/22 09:44:25;;;;;;;7.20;2.75;;;;;;;;;;5020788;28;20028;-79
2022/08/22 09:47:01;;;;;;;4.47;3.10;;;;;;;;;;5039636;28;20040;-77
2022/08/22 09:49:45;;;;;;;5.35;3.05;;;;;;;;;;5026431;28;20059;-78
2022/08/22 09:52:44;;;;;;;8.57;3.67;;;;;;;;;;5026550;28;20567;-78
2022/08/22 09:55:27;;;;;;;;;;;;;;;;;;5031902;28;20690;-79
2022/08/22 09:58:04;;;;;;;12.00;4.00;;;;;;;;;;5037455;28;19917;-78
2022/08/22 10:00:42;;;;;;;13.68;3.63;;;;;;;;;;5023092;28;20025;-77
2022/08/22 10:03:27;;;;;;;6.63;3.08;;;;;;;;;;5022088;28;20025;-78
2022/08/22 10:06:10;;;;;;;6.72;3.88;;;;;;;;;;5019875;28;20470;-78
2022/08/22 10:08:44;;;;;;;5.00;3.55;;;;;;;;;;5037887;28;20049;-79
2022/08/22 10:11:38;;;;;;;6.47;3.25;;;;;;;;;;5016831;28;20033;-80
2022/08/22 10:14:13;;;;;;;6.00;3.95;;;;;;;;;;5018910;28;20342;-81
2022/08/22 10:16:55;;;;;;;6.05;3.83;;;;;;;;;;5028654;28;20034;-81
2022/08/22 10:19:51;;;;;;;7.65;4.10;;;;;;;;;;5041444;28;20450;-82
2022/08/22 10:22:36;;;;;;;21.45;5.95;;;;;;;;;;5020508;28;20037;-78
2022/08/22 10:25:31;;;;;;;6.82;3.53;;;;;;;;;;5019439;28;20054;-79
2022/08/22 10:28:07;;;;;;;13.00;4.80;;;;;;;;;;5026422;28;20026;-80
2022/08/22 10:30:54;;;;;;;11.82;4.30;;;;;;;;;;5024496;28;20022;-80
2022/08/22 10:33:27;;;;;;;7.32;3.95;;;;;;;;;;5037237;28;20041;-80
2022/08/22 10:36:02;;;;;;;9.68;4.30;;;;;;;;;;5022851;28;20033;-80
2022/08/22 10:38:34;;;;;;;5.53;3.95;;;;;;;;;;5024407;28;20128;-81
2022/08/22 10:41:11;;;;;;;6.30;3.83;;;;;;;;;;5023522;28;20033;-80
2022/08/22 10:44:14;;;;;;;10.77;3.85;;;;;;;;;;5021074;28;20464;-82
2022/08/22 10:47:08;;;;;;;9.70;4.80;;;;;;;;;;5027040;28;20033;-80
2022/08/22 10:49:50;;;;;;;7.75;3.67;;;;;;;;;;5026987;28;20497;-79
2022/08/22 10:52:25;;;;;;;7.10;3.30;;;;;;;;;;5025091;28;20493;-79
2022/08/22 10:55:22;;;;;;;7.47;3.55;;;;;;;;;;5021192;28;20440;-79
2022/08/22 10:58:03;;;;;;;8.55;4.65;;;;;;;;;;5027656;28;20374;-77
2022/08/22 11:00:47;;;;;;;8.95;3.92;;;;;;;;;;5021067;28;20039;-81
2022/08/22 11:03:23;;;;;;;4.93;2.97;;;;;;;;;;5018912;28;20033;-79
2022/08/22 11:05:50;;;;;;;10.40;4.10;;;;;;;;;;5020716;28;20706;-78
2022/08/22 11:08:41;;;;;;;7.05;3.90;;;;;;;;;;5023056;28;20025;-79
2022/08/22 11:14:47;;;;;;;7.25;3.58;;;;;;;;;;5016912;28;20048;-79
2022/08/22 11:18:00;;;;;;;4.65;3.13;;;;;;;;;;5025124;28;20127;-80
2022/08/22 11:20:47;;;;;;;6.63;3.40;;;;;;;;;;5018696;28;20049;-78
2022/08/22 11:23:34;;;;;;;6.65;3.90;;;;;;;;;;5018356;28;20033;-78
2022/08/22 11:26:24;;;;;;;6.60;3.72;;;;;;;;;;5023743;28;20045;-80
2022/08/22 11:28:59;;;;;;;9.27;3.33;;;;;;;;;;5022146;28;20021;-81
2022/08/22 11:31:49;;;;;;;11.50;3.63;;;;;;;;;;5022068;28;20540;-81
2022/08/22 11:34:51;;;;;;;6.25;3.80;;;;;;;;;;5021371;28;20037;-78
2022/08/22 11:37:17;;;;;;;;;;;;;;;;;;5043152;28;20040;-79
2022/08/22 11:39:57;;;;;;;10.90;4.22;;;;;;;;;;5025985;28;19916;-79
2022/08/22 11:42:32;;;;;;;7.57;2.60;;;;;;;;;;5022361;28;20049;-78
2022/08/22 11:45:00;;;;;;;13.68;3.53;;;;;;;;;;5023016;28;20025;-81
2022/08/22 11:47:33;;;;;;;4.25;2.63;;;;;;;;;;5023657;28;20033;-80
2022/08/22 11:50:24;;;;;;;8.05;3.05;;;;;;;;;;5023197;28;20029;-77
2022/08/22 11:53:17;;;;;;;4.38;2.72;;;;;;;;;;5021312;28;20064;-78
2022/08/22 11:56:01;;;;;;;7.60;3.70;;;;;;;;;;5022483;28;20044;-80
2022/08/22 11:58:43;;;;;;;8.95;3.35;;;;;;;;;;5034226;28;20231;-79
2022/08/22 12:01:17;;;;;;;6.15;3.08;;;;;;;;;;5024812;28;20042;-78
2022/08/22 12:04:04;;;;;;;4.53;2.83;;;;;;;;;;5012722;28;20102;-79
2022/08/22 12:06:58;;;;;;;4.88;2.17;;;;;;;;;;5034309;28;20087;-78
2022/08/22 12:09:57;;;;;;;7.18;2.80;;;;;;;;;;5019435;28;20439;-78
2022/08/22 12:12:51;;;;;;;4.40;3.08;;;;;;;;;;5032197;28;20029;-78
2022/08/22 12:15:19;;;;;;;11.65;3.05;;;;;;;;;;5017487;28;20693;-78
2022/08/22 12:18:15;;;;;;;8.38;2.15;;;;;;;;;;5020203;28;20112;-78
2022/08/22 12:21:02;;;;;;;8.00;2.55;;;;;;;;;;5016981;28;20029;-79
2022/08/22 12:23:43;;;;;;;6.03;2.40;;;;;;;;;;5012666;28;20119;-78
2022/08/22 12:26:21;;;;;;;3.00;1.73;;;;;;;;;;5016003;28;20153;-78
2022/08/22 12:29:40;;;;;;;6.18;2.05;;;;;;;;;;5015703;28;20025;-78
2022/08/22 12:32:18;;;;;;;2.97;1.58;;;;;;;;;;4988990;28;21214;-78
2022/08/22 12:35:36;;;;;;;9.60;2.58;;;;;;;;;;5007314;28;20033;-79
2022/08/22 12:38:22;;;;;;;8.68;3.17;;;;;;;;;;5006813;28;20046;-80
2022/08/22 12:41:02;;;;;;;11.00;2.60;;;;;;;;;;5018683;28;20033;-79
2022/08/22 12:43:37;;;;;;;8.43;3.03;;;;;;;;;;5012324;28;20037;-77
2022/08/22 12:46:22;;;;;;;7.78;2.17;;;;;;;;;;5021832;28;20029;-79
2022/08/22 12:49:23;;;;;;;2.90;1.70;;;;;;;;;;5015123;28;20803;-77
2022/08/22 12:52:19;;;;;;;10.57;2.88;;;;;;;;;;5006863;28;20400;-80
2022/08/22 12:54:51;;;;;;;8.70;2.50;;;;;;;;;;5022050;28;20582;-80
2022/08/22 12:57:41;;;;;;;6.57;2.72;;;;;;;;;;5035962;28;20397;-78
2022/08/22 13:00:21;;;;;;;6.88;3.30;;;;;;;;;;5032701;28;20393;-78
2022/08/22 13:02:51;;;;;;;11.40;3.53;;;;;;;;;;5020226;28;20129;-79
2022/08/22 13:05:22;;;;;;;11.05;2.92;;;;;;;;;;5028013;28;20067;-78
2022/08/22 13:08:04;;;;;;;9.63;3.40;;;;;;;;;;5026838;28;20030;-76
2022/08/22 13:10:38;;;;;;;5.70;2.45;;;;;;;;;;5022541;28;20724;-78
2022/08/22 13:13:06;;;;;;;5.18;3.03;;;;;;;;;;5033037;28;20128;-78
2022/08/22 13:15:52;;;;;;;9.32;2.95;;;;;;;;;;5013256;28;20025;-79
2022/08/22 13:18:24;;;;;;;9.70;2.85;;;;;;;;;;5021398;28;20501;-80
2022/08/22 13:20:53;;;;;;;7.95;2.97;;;;;;;;;;5003202;28;20468;-81
2022/08/22 13:23:27;;;;;;;6.30;2.60;;;;;;;;;;5012835;28;20021;-80
2022/08/22 13:26:01;;;;;;;10.45;2.65;;;;;;;;;;5017694;28;20076;-78
2022/08/22 13:28:30;;;;;;;6.95;3.38;;;;;;;;;;5030682;28;20072;-77
2022/08/22 13:31:01;;;;;;;5.60;2.80;;;;;;;;;;5028129;28;20029;-80
2022/08/22 13:33:37;;;;;;;7.30;2.97;;;;;;;;;;5007537;28;20045;-78
2022/08/22 13:36:12;;;;;;;7.70;2.78;;;;;;;;;;5039780;28;20714;-78
2022/08/22 13:38:47;;;;;;;9.07;3.85;;;;;;;;;;5022436;28;20349;-80
2022/08/22 13:41:48;;;;;;;8.90;2.75;;;;;;;;;;5033231;28;20179;-79
2022/08/22 13:44:43;;;;;;;4.87;2.50;;;;;;;;;;5025277;28;20048;-79
2022/08/22 13:47:15;;;;;;;8.30;3.42;;;;;;;;;;5033669;28;20437;-78
2022/08/22 13:49:47;;;;;;;6.43;2.53;;;;;;;;;;5045771;28;20029;-79
2022/08/22 13:52:35;;;;;;;8.07;3.15;;;;;;;;;;5024703;28;20101;-80
2022/08/22 13:55:00;;;;;;;10.73;3.45;;;;;;;;;;5022057;28;20477;-79
2022/08/22 13:57:41;;;;;;;9.90;4.60;;;;;;;;;;5030490;28;20116;-77
2022/08/22 14:00:45;;;;;;;12.10;3.95;;;;;;;;;;5028526;28;20151;-78
2022/08/22 14:03:18;;;;;;;8.35;4.88;;;;;;;;;;5036348;28;20041;-79
2022/08/22 14:05:53;;;;;;;13.77;5.20;;;;;;;;;;5033006;28;20036;-79
2022/08/22 14:08:33;;;;;;;6.65;3.35;;;;;;;;;;5032355;28;20096;-79
2022/08/22 14:11:07;;;;;;;11.80;5.18;;;;;;;;;;5024482;28;20045;-78
2022/08/22 14:13:54;;;;;;;9.25;3.75;;;;;;;;;;5028704;28;20108;-79
2022/08/22 14:16:24;;;;;;;7.65;3.13;;;;;;;;;;5039089;28;20425;-79
2022/08/22 14:18:54;;;;;;;5.75;3.35;;;;;;;;;;5041508;28;20038;-80
2022/08/22 14:21:40;;;;;;;6.25;3.20;;;;;;;;;;5048301;28;20029;-79
2022/08/22 14:24:11;;;;;;;6.50;2.50;;;;;;;;;;5037486;28;20045;-80
2022/08/22 14:26:48;;;;;;;4.78;2.45;;;;;;;;;;5043820;28;20072;-79
2022/08/22 14:29:16;;;;;;;8.07;4.68;;;;;;;;;;5025230;28;20024;-81
2022/08/22 14:32:05;;;;;;;9.20;4.32;;;;;;;;;;5056469;28;20099;-80
2022/08/22 14:34:35;;;;;;;10.57;5.22;;;;;;;;;;5032058;28;20021;-79
2022/08/22 14:37:11;;;;;;;7.30;3.50;;;;;;;;;;5027254;28;20017;-79
2022/08/22 14:39:46;;;;;;;5.90;2.83;;;;;;;;;;5021329;28;20045;-80
2022/08/22 14:42:21;;;;;;;11.50;3.10;;;;;;;;;;5012791;28;20045;-79
2022/08/22 14:45:21;;;;;;;9.50;4.80;;;;;;;;;;5032548;28;20026;-79
2022/08/22 14:48:14;;;;;;;6.70;3.60;;;;;;;;;;5042312;28;20056;-78
2022/08/22 14:50:50;;;;;;;5.82;3.30;;;;;;;;;;5046609;28;20028;-77
2022/08/22 14:53:19;;;;;;;5.72;3.13;;;;;;;;;;5031116;28;20061;-79
2022/08/22 14:56:08;;;;;;;5.25;2.65;;;;;;;;;;5031173;28;20119;-80
2022/08/22 14:58:54;;;;;;;4.82;2.53;;;;;;;;;;5040303;28;20076;-79
2022/08/22 15:01:23;;;;;;;6.78;3.08;;;;;;;;;;5013757;28;20445;-80
2022/08/22 15:03:55;;;;;;;5.13;2.97;;;;;;;;;;5030761;28;20040;-79
2022/08/22 15:06:49;;;;;;;5.60;2.85;;;;;;;;;;5012480;28;20080;-80
2022/08/22 15:09:47;;;;;;;5.15;2.33;;;;;;;;;;5012711;28;20064;-80
2022/08/22 15:12:33;;;;;;;3.55;2.58;;;;;;;;;;5024689;28;20114;-78
2022/08/22 15:15:01;;;;;;;6.63;2.75;;;;;;;;;;5046408;28;20183;-79
2022/08/22 15:17:46;;;;;;;6.88;3.25;;;;;;;;;;5032824;28;20078;-79
2022/08/22 15:20:32;;;;;;;8.73;4.15;;;;;;;;;;5029358;28;20026;-80
2022/08/22 15:23:20;;;;;;;6.30;3.75;;;;;;;;;;5033219;28;20477;-79
2022/08/22 15:26:16;;;;;;;5.80;3.28;;;;;;;;;;5032316;28;20053;-79
2022/08/22 15:28:42;;;;;;;10.77;4.30;;;;;;;;;;5021490;28;20494;-78
2022/08/22 15:31:16;;;;;;;4.80;3.10;;;;;;;;;;5017605;28;20033;-80
2022/08/22 15:33:44;;;;;;;6.43;3.95;;;;;;;;;;5032930;28;20044;-79
2022/08/22 15:36:13;;;;;;;6.95;3.22;;;;;;;;;;5033024;28;20113;-79
2022/08/22 15:38:50;;;;;;;11.88;4.25;;;;;;;;;;5019757;28;20056;-80
2022/08/22 15:41:30;;;;;;;7.68;2.88;;;;;;;;;;5012875;28;20041;-79
2022/08/22 15:44:22;;;;;;;9.57;3.47;;;;;;;;;;5012348;28;20041;-80
2022/08/22 15:46:50;;;;;;;;;;;;;;;;;;5014309;28;20025;-79
2022/08/22 15:49:19;;;;;;;4.40;3.42;;;;;;;;;;5011893;28;20349;-78
2022/08/22 15:52:08;;;;;;;4.05;3.17;;;;;;;;;;5012425;28;20724;-79
2022/08/22 15:54:55;;;;;;;4.82;2.88;;;;;;;;;;5011726;28;20026;-80
2022/08/22 15:57:39;;;;;;;9.57;3.58;;;;;;;;;;5012310;28;20091;-79
2022/08/22 16:00:25;;;;;;;5.45;2.55;;;;;;;;;;5028418;28;20029;-79
2022/08/22 16:03:09;;;;;;;7.45;3.15;;;;;;;;;;5027472;28;20040;-79
2022/08/22 16:05:51;;;;;;;6.55;3.30;;;;;;;;;;5032819;28;20087;-79
2022/08/22 16:08:42;;;;;;;6.20;2.95;;;;;;;;;;5031535;28;20064;-79
2022/08/22 16:11:14;;;;;;;;;;;;;;;;;;5030472;28;20029;-80
2022/08/22 16:13:43;;;;;;;5.55;3.10;;;;;;;;;;5027554;28;19909;-79
2022/08/22 16:16:13;;;;;;;6.20;3.00;;;;;;;;;;5012573;28;20435;-79
2022/08/22 16:18:39;;;;;;;6.55;3.03;;;;;;;;;;5011168;28;20033;-80
2022/08/22 16:21:10;;;;;;;7.97;6.32;;;;;;;;;;5013233;28;20117;-80